Terminal Aerodrome Forecast
Issued by NWS

Home | Current Version | Previous Version | Text Only | Print | Product List | Glossary On
Versions: 1 2 3 4 5 6 7 8 9 10 11 12 13 14
000
FTUS45 KREV 240520
TAFTVL
TAF
KTVL 240520Z 2406/2506 19003KT P6SM SCT080 BKN140
     FM241400 19011G20KT P6SM VCSH SCT050 BKN100
     FM241900 20018G30KT 6SM -SHRASN SCT025 BKN035 OVC050
     FM250000 20015G25KT 2SM -SN BKN020 OVC035
     FM250400 19010KT 5SM -SHSN BKN025 OVC040=

USA.gov is the U.S. government's official web portal to all federal, state and local government web resources and services.